Time;durP1;ratioP1;P1;durP2;ratioP2;P2;SDS_P1;SDS_P2;PMS_P1;PMS_P2;Temp;Humidity;BMP_temperature;BMP_pressure;BME280_temperature;BME280_humidity;BME280_pressure;Samples;Min_cycle;Max_cycle;Signal;HPM_P1;HPM_P2
2022/05/24 00:00:16;;;;;;;14.93;7.90;;;14.90;99.90;;;;;;5056176;28;20511;-70
2022/05/24 00:02:42;;;;;;;20.08;8.00;;;14.90;99.90;;;;;;5056064;28;20041;-69
2022/05/24 00:05:09;;;;;;;12.60;9.15;;;15.00;99.90;;;;;;5056051;28;20584;-70
2022/05/24 00:07:35;;;;;;;23.17;10.05;;;15.10;99.90;;;;;;5056032;28;20128;-70
2022/05/24 00:10:01;;;;;;;18.25;9.68;;;15.00;99.90;;;;;;5037994;28;20061;-70
2022/05/24 00:12:27;;;;;;;15.25;9.82;;;14.70;99.90;;;;;;5056016;28;20048;-70
2022/05/24 00:17:37;;;;;;;16.83;9.35;;;14.80;99.90;;;;;;5055800;28;20052;-70
2022/05/24 00:20:04;;;;;;;17.73;8.70;;;14.70;99.90;;;;;;5038067;28;20413;-70
2022/05/24 00:22:30;;;;;;;15.52;9.57;;;14.80;99.90;;;;;;5055417;28;20049;-71
2022/05/24 00:25:01;;;;;;;15.77;9.43;;;14.90;99.90;;;;;;5055508;28;20049;-70
2022/05/24 00:27:28;;;;;;;15.68;9.93;;;14.90;99.90;;;;;;5055582;28;20045;-69
2022/05/24 00:29:54;;;;;;;15.15;10.63;;;14.90;99.90;;;;;;5055415;28;20052;-70
2022/05/24 00:32:20;;;;;;;13.27;9.23;;;14.90;99.90;;;;;;5055591;28;20463;-70
2022/05/24 00:34:46;;;;;;;23.65;10.77;;;14.90;99.90;;;;;;5037765;28;20081;-70
2022/05/24 00:37:11;;;;;;;15.90;10.82;;;15.00;99.90;;;;;;5055095;28;20071;-70
2022/05/24 00:39:37;;;;;;;12.98;8.40;;;15.10;99.90;;;;;;5055042;28;20504;-70
2022/05/24 00:42:08;;;;;;;14.52;9.30;;;15.10;99.90;;;;;;5054557;28;20052;-70
2022/05/24 00:44:39;;;;;;;11.48;8.70;;;15.30;99.90;;;;;;5055658;28;20048;-70
2022/05/24 00:47:13;;;;;;;16.10;9.07;;;15.20;99.90;;;;;;5055409;28;20045;-70
2022/05/24 00:49:48;;;;;;;19.42;10.55;;;15.30;99.90;;;;;;5055124;28;20444;-70
2022/05/24 00:52:13;;;;;;;13.90;8.93;;;15.40;99.90;;;;;;5055654;28;20052;-70
2022/05/24 00:54:40;;;;;;;14.70;9.05;;;15.30;99.90;;;;;;5054656;28;20044;-70
2022/05/24 00:57:13;;;;;;;18.75;8.43;;;15.30;99.90;;;;;;5021216;28;20063;-70
2022/05/24 00:59:48;;;;;;;13.70;6.95;;;15.20;99.90;;;;;;5037255;28;20139;-70
2022/05/24 01:02:14;;;;;;;10.37;6.60;;;15.20;99.90;;;;;;5054735;28;20408;-70
2022/05/24 01:04:39;;;;;;;10.55;7.00;;;15.20;99.90;;;;;;5055125;28;20124;-70
2022/05/24 01:07:05;;;;;;;9.65;5.93;;;15.30;99.90;;;;;;5037129;28;20053;-70
2022/05/24 01:09:41;;;;;;;10.93;5.90;;;15.30;99.90;;;;;;5055045;28;20051;-70
2022/05/24 01:12:13;;;;;;;9.50;5.53;;;15.30;99.90;;;;;;5054610;28;20479;-70
2022/05/24 01:14:38;;;;;;;7.55;5.15;;;15.30;99.90;;;;;;5054581;28;20049;-70
2022/05/24 01:17:05;;;;;;;10.18;5.50;;;15.40;99.90;;;;;;5037208;28;20048;-70
2022/05/24 01:19:41;;;;;;;6.97;5.07;;;15.40;99.90;;;;;;5054662;28;20045;-70
2022/05/24 01:22:34;;;;;;;11.57;6.57;;;15.40;99.90;;;;;;5054774;28;20048;-70
2022/05/24 01:25:06;;;;;;;7.82;5.00;;;15.40;99.90;;;;;;5053975;28;20051;-70
2022/05/24 01:27:33;;;;;;;9.15;5.68;;;15.30;99.90;;;;;;5036982;28;20045;-70
2022/05/24 01:29:59;;;;;;;6.95;5.20;;;15.20;99.90;;;;;;5036242;28;20088;-70
2022/05/24 01:37:55;;;;;;;9.40;5.22;;;15.30;99.90;;;;;;5053980;28;20512;-70
2022/05/24 01:40:21;;;;;;;8.63;5.32;;;15.20;99.90;;;;;;5054186;28;20045;-70
2022/05/24 01:42:47;;;;;;;10.98;6.72;;;15.30;99.90;;;;;;5054230;28;20132;-70
2022/05/24 01:45:24;;;;;;;7.22;5.60;;;15.30;99.90;;;;;;5054113;28;20186;-70
2022/05/24 01:47:55;;;;;;;13.50;6.85;;;15.30;99.90;;;;;;5054352;28;20045;-70
2022/05/24 01:50:23;;;;;;;10.73;6.35;;;15.30;99.90;;;;;;5054129;28;20041;-70
2022/05/24 01:52:59;;;;;;;11.52;7.10;;;15.30;99.90;;;;;;5053919;28;20036;-70
2022/05/24 01:55:37;;;;;;;11.52;6.18;;;15.40;99.90;;;;;;5053498;28;20045;-70
2022/05/24 01:58:07;;;;;;;11.82;6.57;;;15.40;99.90;;;;;;5053842;28;20055;-70
2022/05/24 02:00:33;;;;;;;12.52;6.80;;;15.40;99.90;;;;;;5053884;28;20044;-70
2022/05/24 02:02:58;;;;;;;11.38;6.03;;;15.40;99.90;;;;;;5053850;28;20095;-70
2022/05/24 02:05:41;;;;;;;11.95;7.90;;;15.40;99.90;;;;;;5036277;28;20445;-70
2022/05/24 02:08:10;;;;;;;17.55;8.70;;;15.40;99.90;;;;;;5053596;28;20056;-70
2022/05/24 02:11:00;;;;;;;11.88;7.70;;;15.40;99.90;;;;;;5053637;28;20041;-70
2022/05/24 02:13:34;;;;;;;10.85;6.68;;;15.50;99.90;;;;;;5054035;28;20045;-70
2022/05/24 02:16:03;;;;;;;11.23;7.13;;;15.50;99.90;;;;;;5054344;28;20103;-70
2022/05/24 02:18:30;;;;;;;11.00;7.05;;;15.50;99.90;;;;;;5053509;28;20045;-70
2022/05/24 02:20:56;;;;;;;9.70;6.13;;;15.60;99.90;;;;;;5035573;28;20080;-70
2022/05/24 02:23:22;;;;;;;13.07;7.07;;;15.60;99.90;;;;;;5053504;28;20087;-70
2022/05/24 02:25:56;;;;;;;11.13;6.78;;;15.60;99.90;;;;;;5052919;28;20413;-70
2022/05/24 02:28:29;;;;;;;14.55;7.80;;;15.60;99.90;;;;;;5035722;28;20063;-71
2022/05/24 02:31:01;;;;;;;13.10;7.90;;;15.70;99.90;;;;;;5035413;28;20462;-70
2022/05/24 02:33:27;;;;;;;11.20;6.82;;;15.80;99.90;;;;;;5035825;28;20052;-70
2022/05/24 02:35:53;;;;;;;11.45;7.13;;;15.90;99.90;;;;;;5053215;28;20536;-71
2022/05/24 02:38:19;;;;;;;13.35;6.55;;;15.90;99.90;;;;;;5053108;28;20161;-70
2022/05/24 02:43:29;;;;;;;10.38;6.70;;;15.90;99.90;;;;;;5053175;28;20115;-70
2022/05/24 02:45:55;;;;;;;12.82;6.90;;;15.80;99.90;;;;;;5053252;28;20044;-70
2022/05/24 02:48:21;;;;;;;11.63;6.15;;;15.90;99.90;;;;;;5052989;28;20559;-70
2022/05/24 02:50:47;;;;;;;9.50;6.53;;;16.00;99.90;;;;;;5053281;28;20071;-70
2022/05/24 02:53:13;;;;;;;10.68;6.88;;;16.00;99.90;;;;;;5035497;28;20108;-70
2022/05/24 02:55:39;;;;;;;10.68;7.18;;;15.90;99.90;;;;;;5034965;28;20508;-71
2022/05/24 02:58:05;;;;;;;12.25;8.13;;;16.00;99.90;;;;;;5035567;28;20071;-70
2022/05/24 03:00:31;;;;;;;12.63;7.68;;;16.10;99.90;;;;;;5053189;28;20187;-70
2022/05/24 03:02:57;;;;;;;13.70;8.52;;;16.10;99.90;;;;;;5052978;28;20573;-70
2022/05/24 03:05:24;;;;;;;16.25;10.40;;;16.20;99.90;;;;;;5039188;28;20092;-70
2022/05/24 03:10:35;;;;;;;23.95;13.57;;;15.90;99.90;;;;;;5056948;28;20056;-70
2022/05/24 03:15:47;;;;;;;15.55;10.70;;;15.80;99.90;;;;;;5057069;28;20142;-70
2022/05/24 03:18:16;;;;;;;18.10;10.77;;;15.80;99.90;;;;;;5039368;28;20057;-70
2022/05/24 03:20:43;;;;;;;17.23;10.85;;;15.90;99.90;;;;;;5057174;28;20469;-70
2022/05/24 03:23:09;;;;;;;15.95;10.73;;;15.90;99.90;;;;;;5056791;28;20053;-70
2022/05/24 03:25:35;;;;;;;18.67;13.27;;;15.90;99.90;;;;;;5056412;28;20076;-70
2022/05/24 03:28:03;;;;;;;17.45;12.98;;;15.90;99.90;;;;;;5056669;28;20041;-70
2022/05/24 03:30:30;;;;;;;21.95;14.40;;;15.90;99.90;;;;;;5056496;28;20053;-70
2022/05/24 03:32:56;;;;;;;22.95;14.50;;;15.80;99.90;;;;;;5057202;28;20056;-70
2022/05/24 03:35:22;;;;;;;24.02;15.57;;;15.90;99.90;;;;;;5056565;28;20045;-70
2022/05/24 03:37:48;;;;;;;25.23;17.17;;;15.90;99.90;;;;;;5056672;28;20473;-70
2022/05/24 03:40:14;;;;;;;26.60;16.98;;;15.80;99.90;;;;;;5056386;28;20055;-70
2022/05/24 03:42:40;;;;;;;33.85;19.70;;;15.80;99.90;;;;;;5056611;28;20068;-70
2022/05/24 03:45:08;;;;;;;42.60;21.85;;;15.70;99.90;;;;;;5056225;28;20525;-70
2022/05/24 03:47:34;;;;;;;32.28;19.38;;;15.90;99.90;;;;;;5056241;28;20477;-70
2022/05/24 03:50:00;;;;;;;31.65;20.30;;;15.90;99.90;;;;;;5056305;28;20052;-70
2022/05/24 03:52:26;;;;;;;36.22;21.75;;;15.80;99.90;;;;;;5056100;28;20045;-70
2022/05/24 03:54:51;;;;;;;40.90;24.35;;;15.80;99.90;;;;;;5055939;28;20045;-70
2022/05/24 04:00:03;;;;;;;48.03;27.40;;;15.80;99.90;;;;;;5056300;28;20056;-70
2022/05/24 04:02:29;;;;;;;38.53;25.15;;;15.90;99.90;;;;;;5055858;28;20087;-70
2022/05/24 04:04:55;;;;;;;44.47;26.85;;;15.90;99.90;;;;;;5056043;28;20084;-70
2022/05/24 04:07:20;;;;;;;51.08;28.20;;;15.90;99.90;;;;;;5038166;28;20037;-70
2022/05/24 04:09:46;;;;;;;39.50;24.65;;;15.90;99.90;;;;;;5055602;28;20057;-72
2022/05/24 04:12:11;;;;;;;35.63;23.73;;;16.00;99.90;;;;;;5056543;28;20049;-70
2022/05/24 04:14:37;;;;;;;45.35;26.73;;;16.00;99.90;;;;;;5038558;28;20049;-70
2022/05/24 04:17:03;;;;;;;41.30;26.08;;;15.90;99.90;;;;;;5038250;28;20053;-70
2022/05/24 04:19:29;;;;;;;43.70;26.92;;;15.90;99.90;;;;;;5038144;28;20052;-70
2022/05/24 04:21:55;;;;;;;38.33;25.38;;;16.10;99.90;;;;;;5055815;28;20091;-70
2022/05/24 04:24:20;;;;;;;41.95;25.02;;;16.20;99.90;;;;;;5054988;28;20482;-71
2022/05/24 04:26:47;;;;;;;36.50;23.80;;;16.30;99.90;;;;;;5055496;28;20092;-70
2022/05/24 04:29:13;;;;;;;35.42;24.70;;;16.40;99.90;;;;;;5037701;28;20430;-70
2022/05/24 04:31:40;;;;;;;37.13;23.15;;;16.40;99.90;;;;;;5055421;28;20067;-70
2022/05/24 04:34:06;;;;;;;35.85;23.75;;;16.30;99.90;;;;;;5055427;28;20045;-70
2022/05/24 04:36:32;;;;;;;45.30;26.75;;;16.30;99.90;;;;;;5055155;28;20041;-70
2022/05/24 04:38:58;;;;;;;44.58;25.35;;;16.30;99.90;;;;;;5055476;28;20075;-70
2022/05/24 04:44:09;;;;;;;43.05;26.10;;;16.30;99.90;;;;;;5055596;28;20145;-70
2022/05/24 04:49:22;;;;;;;40.60;23.27;;;16.30;99.90;;;;;;5055329;28;20512;-70
2022/05/24 04:51:48;;;;;;;43.72;24.85;;;16.30;99.90;;;;;;5054882;28;20542;-70
2022/05/24 04:54:13;;;;;;;34.75;21.15;;;16.30;99.90;;;;;;5037258;28;20191;-71
2022/05/24 04:56:39;;;;;;;42.05;24.70;;;16.50;99.90;;;;;;5055394;28;20067;-70
2022/05/24 04:59:05;;;;;;;38.53;23.23;;;16.50;99.90;;;;;;5054902;28;20177;-70
2022/05/24 05:01:30;;;;;;;37.58;23.13;;;16.50;99.90;;;;;;5055213;28;20049;-70
2022/05/24 05:03:56;;;;;;;44.00;24.35;;;16.50;99.90;;;;;;5037399;28;20040;-70
2022/05/24 05:06:22;;;;;;;37.22;22.95;;;16.60;99.90;;;;;;5055087;28;20052;-70
2022/05/24 05:08:47;;;;;;;37.13;22.50;;;16.70;99.90;;;;;;5037222;28;20081;-70
2022/05/24 05:11:13;;;;;;;34.60;21.48;;;16.70;99.90;;;;;;5037061;28;20049;-70
2022/05/24 05:13:39;;;;;;;31.65;19.33;;;16.70;99.90;;;;;;5054816;28;20102;-70
2022/05/24 05:16:05;;;;;;;30.48;19.30;;;16.80;99.90;;;;;;5037265;28;20049;-70
2022/05/24 05:18:30;;;;;;;37.50;21.08;;;16.80;99.90;;;;;;5054597;28;20449;-70
2022/05/24 05:20:56;;;;;;;32.90;19.33;;;16.80;99.90;;;;;;5054299;28;20048;-70
2022/05/24 05:23:22;;;;;;;38.90;21.92;;;16.80;99.90;;;;;;5037077;28;20053;-71
2022/05/24 05:25:48;;;;;;;33.63;20.73;;;16.80;99.90;;;;;;5036413;28;20504;-70
2022/05/24 05:28:15;;;;;;;26.45;17.70;;;16.80;99.90;;;;;;5054428;28;20492;-70
2022/05/24 05:33:25;;;;;;;24.17;15.40;;;16.80;99.90;;;;;;5053927;28;20092;-70
2022/05/24 05:35:51;;;;;;;22.88;15.50;;;16.70;99.90;;;;;;5054145;28;20091;-71
2022/05/24 05:38:17;;;;;;;22.33;15.95;;;16.70;99.90;;;;;;5054222;28;20044;-70
2022/05/24 05:40:43;;;;;;;22.50;15.45;;;16.80;99.90;;;;;;5054089;28;20048;-70
2022/05/24 05:43:10;;;;;;;23.60;14.88;;;16.70;99.90;;;;;;5053961;28;20094;-70
2022/05/24 05:45:36;;;;;;;23.83;13.23;;;16.70;99.90;;;;;;5054079;28;20045;-70
2022/05/24 05:48:02;;;;;;;24.15;15.05;;;16.70;99.90;;;;;;5054055;28;20107;-70
2022/05/24 05:50:28;;;;;;;21.52;14.18;;;16.60;99.90;;;;;;5054358;28;20080;-70
2022/05/24 05:52:54;;;;;;;25.90;15.65;;;16.60;99.90;;;;;;5054464;28;20127;-70
2022/05/24 05:55:20;;;;;;;19.48;14.93;;;16.60;99.90;;;;;;5053485;28;20045;-70
2022/05/24 05:57:47;;;;;;;21.85;16.52;;;16.70;99.90;;;;;;5036195;28;20041;-70
2022/05/24 06:00:13;;;;;;;24.80;16.77;;;16.80;99.90;;;;;;5053708;28;20048;-70
2022/05/24 06:02:39;;;;;;;34.88;22.77;;;16.90;99.90;;;;;;5053589;28;20127;-70
2022/05/24 06:05:05;;;;;;;31.85;22.70;;;16.60;99.90;;;;;;5053960;28;20133;-70
2022/05/24 06:07:32;;;;;;;44.17;22.75;;;16.30;99.90;;;;;;5019929;28;20084;-70
2022/05/24 06:09:58;;;;;;;41.83;22.42;;;16.10;99.90;;;;;;5036101;28;20045;-70
2022/05/24 06:12:25;;;;;;;40.75;23.42;;;15.80;99.90;;;;;;5053644;28;20128;-70
2022/05/24 06:14:50;;;;;;;35.83;21.30;;;15.80;99.90;;;;;;5053407;28;20497;-70
2022/05/24 06:17:17;;;;;;;38.92;22.17;;;15.80;99.90;;;;;;5053323;28;20131;-70
2022/05/24 06:19:43;;;;;;;37.25;21.88;;;15.80;99.90;;;;;;5036658;28;20359;-70
2022/05/24 06:22:10;;;;;;;34.53;20.88;;;15.90;99.90;;;;;;5035970;28;20049;-70
2022/05/24 06:24:35;;;;;;;32.33;19.15;;;16.00;99.90;;;;;;5053140;28;20044;-70
2022/05/24 06:27:02;;;;;;;34.22;20.23;;;16.10;99.90;;;;;;5053499;28;20118;-70
2022/05/24 06:29:30;;;;;;;34.47;20.80;;;16.20;99.90;;;;;;5035900;28;20056;-71
2022/05/24 06:31:56;;;;;;;32.05;19.05;;;16.20;99.90;;;;;;5052963;28;20061;-70
2022/05/24 06:34:21;;;;;;;31.10;18.90;;;16.10;99.90;;;;;;5035932;28;20405;-70
2022/05/24 06:36:47;;;;;;;31.23;18.33;;;16.30;99.90;;;;;;5053338;28;20049;-70
2022/05/24 06:39:13;;;;;;;25.70;17.48;;;16.40;99.90;;;;;;5034983;28;20118;-70
2022/05/24 06:41:39;;;;;;;28.63;17.17;;;16.50;99.90;;;;;;5053490;28;20041;-70
2022/05/24 06:44:05;;;;;;;32.10;17.02;;;16.40;99.90;;;;;;5053113;28;20493;-70
2022/05/24 06:46:31;;;;;;;26.73;16.02;;;16.30;99.90;;;;;;5053036;28;20136;-70
2022/05/24 06:48:57;;;;;;;24.85;16.27;;;16.30;99.90;;;;;;5053205;28;20132;-70
2022/05/24 06:51:23;;;;;;;30.95;16.83;;;16.40;99.90;;;;;;5053172;28;20128;-71
2022/05/24 06:53:49;;;;;;;27.85;14.32;;;16.40;99.90;;;;;;5053153;28;20056;-70
2022/05/24 06:56:16;;;;;;;23.35;13.95;;;16.30;99.90;;;;;;5052731;28;20084;-70
2022/05/24 06:58:42;;;;;;;20.23;14.65;;;16.40;99.90;;;;;;5053170;28;20037;-70
2022/05/24 07:03:56;;;;;;;30.92;14.52;;;16.50;99.90;;;;;;5053326;28;20080;-70
2022/05/24 07:06:22;;;;;;;22.92;13.55;;;16.60;99.90;;;;;;5052939;28;20045;-70
2022/05/24 07:08:49;;;;;;;21.25;12.48;;;16.20;99.90;;;;;;5053081;28;20393;-70
2022/05/24 07:11:17;;;;;;;22.33;13.02;;;16.20;99.90;;;;;;5052830;28;20063;-70
2022/05/24 07:13:43;;;;;;;23.90;12.75;;;16.50;99.90;;;;;;5052989;28;20057;-70
2022/05/24 07:16:10;;;;;;;26.23;12.70;;;16.50;99.90;;;;;;5053060;28;20049;-71
2022/05/24 07:18:36;;;;;;;26.38;10.98;;;16.60;99.90;;;;;;5052878;28;20501;-72
2022/05/24 07:21:04;;;;;;;18.90;11.07;;;16.20;99.90;;;;;;5052889;28;20048;-75
2022/05/24 07:23:31;;;;;;;16.70;10.57;;;15.90;99.90;;;;;;5052818;28;20055;-70
2022/05/24 07:26:10;;;;;;;25.75;12.25;;;15.90;99.90;;;;;;5052408;28;20048;-70
2022/05/24 07:28:36;;;;;;;21.45;11.35;;;15.90;99.90;;;;;;5052948;28;20045;-70
2022/05/24 07:31:01;;;;;;;18.73;11.23;;;16.20;99.90;;;;;;5052414;28;20494;-71
2022/05/24 07:33:27;;;;;;;24.65;11.38;;;16.50;99.90;;;;;;5053096;28;20053;-70
2022/05/24 07:35:54;;;;;;;19.23;9.63;;;16.60;99.90;;;;;;5035231;28;20048;-76
2022/05/24 07:38:19;;;;;;;17.70;10.55;;;16.70;99.90;;;;;;5053155;28;20041;-75
2022/05/24 07:46:14;;;;;;;20.90;10.75;;;16.40;99.90;;;;;;5052707;28;20060;-72
2022/05/24 07:48:41;;;;;;;18.33;10.23;;;16.20;99.90;;;;;;5052676;28;20091;-72
2022/05/24 07:51:07;;;;;;;17.33;9.32;;;16.20;99.90;;;;;;5055579;28;20181;-72
2022/05/24 07:53:34;;;;;;;16.10;10.30;;;16.10;99.90;;;;;;5056660;28;20052;-72
2022/05/24 07:56:00;;;;;;;25.67;10.02;;;16.10;99.90;;;;;;5055961;28;20041;-71
2022/05/24 07:58:27;;;;;;;16.50;9.80;;;16.00;99.90;;;;;;5056189;28;20041;-71
2022/05/24 08:00:55;;;;;;;20.98;11.57;;;16.10;99.90;;;;;;5038736;28;20132;-75
2022/05/24 08:03:21;;;;;;;23.35;13.40;;;16.20;99.90;;;;;;5055900;28;20433;-71
2022/05/24 08:05:47;;;;;;;26.90;13.57;;;16.10;99.90;;;;;;5055776;28;20045;-72
2022/05/24 08:08:14;;;;;;;29.80;14.25;;;16.10;99.90;;;;;;5055757;28;20456;-72
2022/05/24 08:10:41;;;;;;;26.70;13.32;;;15.90;99.90;;;;;;5056140;28;20103;-71
2022/05/24 08:13:10;;;;;;;19.60;10.60;;;15.70;99.90;;;;;;5056036;28;20049;-72
2022/05/24 08:15:36;;;;;;;19.17;9.80;;;15.40;99.90;;;;;;5055681;28;20056;-71
2022/05/24 08:18:03;;;;;;;22.90;12.40;;;15.30;99.90;;;;;;5055918;28;20073;-71
2022/05/24 08:20:29;;;;;;;21.45;11.30;;;15.40;99.90;;;;;;5055883;28;20106;-72
2022/05/24 08:22:57;;;;;;;23.65;13.18;;;15.50;99.90;;;;;;5055713;28;20402;-72
2022/05/24 08:25:24;;;;;;;21.70;13.32;;;15.60;99.90;;;;;;5055493;28;20055;-71
2022/05/24 08:27:51;;;;;;;22.73;12.98;;;15.60;99.90;;;;;;5055621;28;20056;-71
2022/05/24 08:30:18;;;;;;;31.35;16.58;;;15.70;99.90;;;;;;5055748;28;20048;-71
2022/05/24 08:32:47;;;;;;;27.75;14.82;;;16.00;99.90;;;;;;5055270;28;20521;-72
2022/05/24 08:35:15;;;;;;;26.55;15.10;;;16.10;99.90;;;;;;5055770;28;20045;-71
2022/05/24 08:37:41;;;;;;;23.88;14.00;;;16.00;99.90;;;;;;5055382;28;20041;-76
2022/05/24 08:40:09;;;;;;;25.27;13.15;;;16.00;99.90;;;;;;5037866;28;20128;-72
2022/05/24 08:43:00;;;;;;;21.65;12.80;;;16.20;99.90;;;;;;5055546;28;20041;-72
2022/05/24 08:48:26;;;;;;;19.98;10.52;;;16.30;99.90;;;;;;5055520;28;20052;-72
2022/05/24 08:51:06;;;;;;;17.08;9.40;;;16.50;99.90;;;;;;5055275;28;20082;-72
2022/05/24 08:53:42;;;;;;;19.75;11.93;;;16.70;99.90;;;;;;5037768;28;20432;-72
2022/05/24 08:56:17;;;;;;;16.73;12.20;;;16.60;99.90;;;;;;5054794;28;20444;-73
2022/05/24 08:58:50;;;;;;;21.77;12.35;;;16.80;99.90;;;;;;5055407;28;20041;-72
2022/05/24 09:01:32;;;;;;;19.50;9.88;;;16.70;99.90;;;;;;5054317;28;20048;-72
2022/05/24 09:04:05;;;;;;;21.30;10.85;;;16.40;99.90;;;;;;5037297;28;20049;-72
2022/05/24 09:06:34;;;;;;;16.65;9.93;;;16.30;99.90;;;;;;5038225;28;20089;-72
2022/05/24 09:09:15;;;;;;;18.52;10.65;;;16.30;99.90;;;;;;5054912;28;20041;-73
2022/05/24 09:12:19;;;;;;;16.00;10.35;;;16.50;99.90;;;;;;5037686;28;20088;-72
2022/05/24 09:14:56;;;;;;;19.92;10.88;;;16.60;99.90;;;;;;5054628;28;20551;-72
2022/05/24 09:17:48;;;;;;;15.50;10.50;;;16.40;99.90;;;;;;5055613;28;20049;-72
2022/05/24 09:20:37;;;;;;;19.55;11.05;;;16.30;99.90;;;;;;5074365;28;20062;-72
2022/05/24 09:23:15;;;;;;;17.58;11.13;;;16.10;99.90;;;;;;5058097;28;20521;-73
2022/05/24 09:25:53;;;;;;;19.77;13.52;;;16.00;99.90;;;;;;5054098;28;20041;-72
2022/05/24 09:28:18;;;;;;;19.95;12.07;;;16.20;99.90;;;;;;5054162;28;20513;-72
2022/05/24 09:30:45;;;;;;;17.48;11.65;;;15.90;99.90;;;;;;5054144;28;20068;-72
2022/05/24 09:33:23;;;;;;;26.10;12.45;;;15.60;99.90;;;;;;5037154;28;20398;-72
2022/05/24 09:35:57;;;;;;;12.90;7.22;;;15.70;99.90;;;;;;5053980;28;20045;-74
2022/05/24 09:38:34;;;;;;;10.45;4.90;;;15.50;99.90;;;;;;5019977;28;20497;-73
2022/05/24 09:41:19;;;;;;;7.43;2.83;;;15.50;99.90;;;;;;5053967;28;20490;-72
2022/05/24 09:44:02;;;;;;;4.15;2.33;;;15.20;99.90;;;;;;5053056;28;20049;-73
2022/05/24 09:46:28;;;;;;;8.60;2.40;;;15.10;99.90;;;;;;5054336;28;20052;-72
2022/05/24 09:49:03;;;;;;;2.95;1.92;;;15.10;99.90;;;;;;5054312;28;20398;-73
2022/05/24 09:51:40;;;;;;;4.22;1.90;;;15.10;99.90;;;;;;5034631;28;20392;-72
2022/05/24 09:54:20;;;;;;;8.27;2.10;;;15.10;99.90;;;;;;5051836;28;20194;-75
2022/05/24 09:57:20;;;;;;;4.30;2.10;;;15.20;99.90;;;;;;5051857;28;20500;-72
2022/05/24 09:59:58;;;;;;;5.30;1.92;;;15.40;99.90;;;;;;5059299;28;20056;-72
2022/05/24 10:02:31;;;;;;;5.95;2.10;;;15.50;99.90;;;;;;5058108;28;20052;-72
2022/05/24 10:04:58;;;;;;;5.22;1.50;;;15.60;99.90;;;;;;5038773;28;20048;-74
2022/05/24 10:07:31;;;;;;;6.95;2.00;;;15.70;99.90;;;;;;5053867;28;20060;-71
2022/05/24 10:10:16;;;;;;;4.05;1.80;;;15.70;99.90;;;;;;5053972;28;20106;-71
2022/05/24 10:12:56;;;;;;;5.45;1.42;;;15.90;99.90;;;;;;5053661;28;20128;-72
2022/05/24 10:15:29;;;;;;;4.47;1.80;;;15.80;99.90;;;;;;5053788;28;20049;-72
2022/05/24 10:18:14;;;;;;;3.28;1.55;;;16.00;99.90;;;;;;5052119;28;20037;-73
2022/05/24 10:20:59;;;;;;;6.20;1.55;;;16.20;99.90;;;;;;5066473;28;20402;-71
2022/05/24 10:24:00;;;;;;;4.72;1.70;;;16.40;99.90;;;;;;5070763;28;20048;-71
2022/05/24 10:26:59;;;;;;;4.43;1.70;;;16.40;99.90;;;;;;5038704;28;20053;-73
2022/05/24 10:30:19;;;;;;;9.00;1.80;;;16.60;99.90;;;;;;5052815;28;20057;-89
2022/05/24 10:39:02;;;;;;;4.20;1.60;;;16.60;99.90;;;;;;5073124;28;20133;-72
2022/05/24 10:41:37;;;;;;;4.45;1.88;;;16.50;99.90;;;;;;5073482;28;20080;-72
2022/05/24 10:44:13;;;;;;;6.43;1.90;;;16.30;99.90;;;;;;5073003;28;20048;-73
2022/05/24 10:47:06;;;;;;;6.95;2.30;;;16.40;99.90;;;;;;5073438;28;20048;-72
2022/05/24 10:49:44;;;;;;;4.60;2.20;;;16.20;99.90;;;;;;5062652;28;20052;-72
2022/05/24 10:52:21;;;;;;;5.75;2.30;;;15.70;99.90;;;;;;5073466;28;20110;-71
2022/05/24 10:54:53;;;;;;;3.85;1.08;;;15.40;99.90;;;;;;5072501;28;20051;-70
2022/05/24 10:57:21;;;;;;;2.28;0.90;;;15.00;99.90;;;;;;5073043;28;20045;-70
2022/05/24 10:59:49;;;;;;;2.28;0.82;;;14.80;99.90;;;;;;5072982;28;20497;-70
2022/05/24 11:02:23;;;;;;;3.83;0.70;;;14.40;99.90;;;;;;5071409;28;20044;-71
2022/05/24 11:04:52;;;;;;;5.03;1.02;;;14.50;99.90;;;;;;5055171;28;20044;-74
2022/05/24 11:07:20;;;;;;;4.53;0.80;;;14.90;99.90;;;;;;5068657;28;20045;-71
2022/05/24 11:10:09;;;;;;;2.22;1.00;;;15.60;99.90;;;;;;5052039;28;20401;-70
2022/05/24 11:12:46;;;;;;;5.80;1.25;;;15.50;99.90;;;;;;5053230;28;20048;-70
2022/05/24 11:15:34;;;;;;;4.80;1.80;;;15.40;99.90;;;;;;5051308;28;20044;-71
2022/05/24 11:18:19;;;;;;;5.88;1.73;;;15.40;99.90;;;;;;5053164;28;20460;-71
2022/05/24 11:21:01;;;;;;;7.90;2.17;;;15.50;99.90;;;;;;5058681;28;20055;-70
2022/05/24 11:23:40;;;;;;;3.17;1.90;;;15.00;99.90;;;;;;5072577;28;20048;-70
2022/05/24 11:26:21;;;;;;;4.85;2.30;;;15.20;99.90;;;;;;5074826;28;20037;-70
2022/05/24 11:29:10;;;;;;;5.15;2.85;;;15.20;99.90;;;;;;5076517;28;20060;-70
2022/05/24 11:31:47;;;;;;;7.03;3.15;;;15.60;99.90;;;;;;5076666;28;20401;-70
2022/05/24 11:34:24;;;;;;;5.97;3.00;;;15.60;99.90;;;;;;5059315;28;20064;-70
2022/05/24 11:37:07;;;;;;;3.22;1.83;;;15.60;99.90;;;;;;5038911;28;20481;-71
2022/05/24 11:39:44;;;;;;;3.75;1.83;;;15.60;99.90;;;;;;5056489;28;20098;-71
2022/05/24 11:42:19;;;;;;;5.53;2.10;;;15.70;99.90;;;;;;5056289;28;20076;-71
2022/05/24 11:44:44;;;;;;;3.08;1.80;;;15.60;99.90;;;;;;5052941;28;20056;-75
2022/05/24 11:47:35;;;;;;;4.95;1.70;;;15.50;99.90;;;;;;5054366;28;20049;-71
2022/05/24 11:50:08;;;;;;;2.45;1.35;;;16.20;99.90;;;;;;5055271;28;20049;-75
2022/05/24 11:52:59;;;;;;;3.45;1.67;;;16.40;99.90;;;;;;5021994;28;20068;-72
2022/05/24 11:55:43;;;;;;;2.17;1.10;;;16.50;99.90;;;;;;5056026;28;20041;-71
2022/05/24 11:58:21;;;;;;;4.15;1.38;;;16.60;99.90;;;;;;5056245;28;20048;-70
2022/05/24 12:01:04;;;;;;;2.50;1.20;;;16.60;99.90;;;;;;5056334;28;20501;-71
2022/05/24 12:09:22;;;;;;;5.25;1.40;;;16.70;99.90;;;;;;5056112;28;20051;-72
2022/05/24 12:12:08;;;;;;;5.80;1.52;;;16.50;99.90;;;;;;5055966;28;20127;-71
2022/05/24 12:14:37;;;;;;;1.87;0.93;;;16.50;99.90;;;;;;5038406;28;20086;-72
2022/05/24 12:17:06;;;;;;;4.30;1.35;;;16.40;99.90;;;;;;5055884;28;20447;-72
2022/05/24 12:19:40;;;;;;;4.05;1.10;;;16.30;99.90;;;;;;5056082;28;20060;-72
2022/05/24 12:22:13;;;;;;;3.35;0.80;;;15.90;99.90;;;;;;5055708;28;20437;-72
2022/05/24 12:24:39;;;;;;;1.45;0.80;;;15.60;99.90;;;;;;5056136;28;20041;-72
2022/05/24 12:27:34;;;;;;;4.90;0.70;;;15.50;99.90;;;;;;5055289;28;20048;-72
2022/05/24 12:30:34;;;;;;;6.10;0.82;;;15.40;99.90;;;;;;5055635;28;20045;-72
2022/05/24 12:33:16;;;;;;;3.38;0.70;;;15.60;99.90;;;;;;5037946;28;20478;-72
2022/05/24 12:35:54;;;;;;;4.00;1.42;;;15.70;99.90;;;;;;5054692;28;20098;-72
2022/05/24 12:38:24;;;;;;;4.35;0.70;;;15.90;99.90;;;;;;5055490;28;20170;-72
2022/05/24 12:40:50;;;;;;;3.67;0.82;;;15.70;99.90;;;;;;5055555;28;20401;-71
2022/05/24 12:43:18;;;;;;;3.45;0.70;;;15.60;99.90;;;;;;5055227;28;20053;-72
2022/05/24 12:45:47;;;;;;;3.25;1.02;;;15.40;99.90;;;;;;5055571;28;20088;-71
2022/05/24 12:48:35;;;;;;;3.17;1.17;;;15.20;99.90;;;;;;5055135;28;20055;-71
2022/05/24 12:51:04;;;;;;;5.97;1.60;;;15.00;99.90;;;;;;5055283;28;20066;-72
2022/05/24 12:53:30;;;;;;;4.82;1.30;;;14.80;99.90;;;;;;5055005;28;20155;-72
2022/05/24 12:56:00;;;;;;;4.25;1.42;;;15.10;99.90;;;;;;5054968;28;20123;-72
2022/05/24 12:58:44;;;;;;;3.58;1.33;;;15.30;99.90;;;;;;5037740;28;20097;-72
2022/05/24 13:01:28;;;;;;;3.40;1.25;;;16.00;99.90;;;;;;5055246;28;20053;-72
2022/05/24 13:04:11;;;;;;;5.40;1.00;;;16.50;99.90;;;;;;5055141;28;20052;-72
2022/05/24 13:06:39;;;;;;;3.97;0.70;;;16.40;99.90;;;;;;5055108;28;20053;-72
2022/05/24 13:09:11;;;;;;;5.15;0.95;;;16.30;99.90;;;;;;5036838;28;20049;-72
2022/05/24 13:11:37;;;;;;;3.47;1.15;;;16.30;99.90;;;;;;5054820;28;20056;-72
2022/05/24 13:14:04;;;;;;;3.28;0.93;;;16.50;99.90;;;;;;5054885;28;20053;-72
2022/05/24 13:16:30;;;;;;;4.30;1.33;;;16.80;99.90;;;;;;5054647;28;20040;-72
2022/05/24 13:18:56;;;;;;;3.58;1.00;;;16.80;99.90;;;;;;5054584;28;20045;-72
2022/05/24 13:21:23;;;;;;;5.80;1.00;;;16.50;99.90;;;;;;5054661;28;20076;-72
2022/05/24 13:24:17;;;;;;;5.00;1.15;;;16.40;99.90;;;;;;5054756;28;20100;-71
2022/05/24 13:27:04;;;;;;;3.45;0.95;;;16.30;99.90;;;;;;5054173;28;20429;-72
2022/05/24 13:33:32;;;;;;;3.10;0.82;;;16.10;99.90;;;;;;5054643;28;20077;-72
2022/05/24 13:35:01;;;;;;;3.55;0.70;;;16.10;99.90;;;;;;5054172;28;20086;-72
2022/05/24 13:37:50;;;;;;;5.22;0.73;;;16.00;99.90;;;;;;5054162;28;20136;-72
2022/05/24 13:40:17;;;;;;;4.70;1.05;;;16.20;99.90;;;;;;5054270;28;20056;-72
2022/05/24 13:43:00;;;;;;;6.82;0.82;;;16.20;99.90;;;;;;5054124;28;20486;-71
2022/05/24 13:45:27;;;;;;;3.65;1.10;;;16.40;99.90;;;;;;5053886;28;20041;-71
2022/05/24 13:47:54;;;;;;;3.85;0.93;;;16.70;99.90;;;;;;5036103;28;20053;-72